METAR Data
IDs: Format: Raw Decoded Include TAF

Data at: 1914 UTC 31 Jul 2021

METAR for:KGAI (Gaithersburg/Montgom, MD, US)
Text:KGAI 311856Z AUTO VRB05KT 10SM CLR 27/16 A3000 RMK AO2 SLP169 T02720156
Temperature: 27.2°C ( 81°F)
Dewpoint: 15.6°C ( 60°F) [RH = 49%]
Pressure (altimeter):30.00 inches Hg (1016.0 mb) [Sea level pressure: 1016.9 mb]
Winds:variable direction winds at 6 MPH (5 knots; 2.6 m/s)
Visibility:10 or more sm (16+ km)
Ceiling:at least 12,000 feet AGL
Clouds:sky clear below 12,000 feet AGL
QC Flag:automated observation with no human augmentation